sensor_id;sensor_type;location;lat;lon;timestamp;P1;durP1;ratioP1;P2;durP2;ratioP2
61308;SDS011;47188;55.644;37.772;2022-10-17T00:02:04;7.47;;;5.28;;
61308;SDS011;47188;55.644;37.772;2022-10-17T00:04:29;6.38;;;4.68;;
61308;SDS011;47188;55.644;37.772;2022-10-17T00:06:55;7.70;;;5.07;;
61308;SDS011;47188;55.644;37.772;2022-10-17T00:09:21;9.30;;;4.95;;
61308;SDS011;47188;55.644;37.772;2022-10-17T00:11:47;7.10;;;4.93;;
61308;SDS011;47188;55.644;37.772;2022-10-17T00:14:12;7.68;;;5.03;;
61308;SDS011;47188;55.644;37.772;2022-10-17T00:16:38;7.57;;;4.75;;
61308;SDS011;47188;55.644;37.772;2022-10-17T00:19:04;6.90;;;5.20;;
61308;SDS011;47188;55.644;37.772;2022-10-17T00:21:31;8.98;;;4.90;;
61308;SDS011;47188;55.644;37.772;2022-10-17T00:23:57;7.93;;;4.90;;
61308;SDS011;47188;55.644;37.772;2022-10-17T00:26:24;8.15;;;5.10;;
61308;SDS011;47188;55.644;37.772;2022-10-17T00:28:50;7.15;;;4.60;;
61308;SDS011;47188;55.644;37.772;2022-10-17T00:31:18;7.60;;;5.03;;
61308;SDS011;47188;55.644;37.772;2022-10-17T00:33:45;7.40;;;5.13;;
61308;SDS011;47188;55.644;37.772;2022-10-17T00:36:12;8.23;;;5.28;;
61308;SDS011;47188;55.644;37.772;2022-10-17T00:38:43;8.23;;;5.18;;
61308;SDS011;47188;55.644;37.772;2022-10-17T00:41:11;8.02;;;5.10;;
61308;SDS011;47188;55.644;37.772;2022-10-17T00:43:52;8.32;;;4.88;;
61308;SDS011;47188;55.644;37.772;2022-10-17T00:46:30;6.53;;;4.60;;
61308;SDS011;47188;55.644;37.772;2022-10-17T00:49:02;6.60;;;4.85;;
61308;SDS011;47188;55.644;37.772;2022-10-17T00:51:33;12.65;;;5.15;;
61308;SDS011;47188;55.644;37.772;2022-10-17T00:54:12;12.13;;;5.10;;
61308;SDS011;47188;55.644;37.772;2022-10-17T00:56:39;8.73;;;5.13;;
61308;SDS011;47188;55.644;37.772;2022-10-17T00:59:06;6.80;;;5.03;;
61308;SDS011;47188;55.644;37.772;2022-10-17T01:01:36;6.78;;;4.97;;
61308;SDS011;47188;55.644;37.772;2022-10-17T01:04:02;8.48;;;5.30;;
61308;SDS011;47188;55.644;37.772;2022-10-17T01:06:28;7.93;;;5.22;;
61308;SDS011;47188;55.644;37.772;2022-10-17T01:08:54;6.45;;;4.65;;
61308;SDS011;47188;55.644;37.772;2022-10-17T01:11:23;8.35;;;5.13;;
61308;SDS011;47188;55.644;37.772;2022-10-17T01:14:05;9.73;;;4.85;;
61308;SDS011;47188;55.644;37.772;2022-10-17T01:16:45;6.70;;;5.38;;
61308;SDS011;47188;55.644;37.772;2022-10-17T01:22:26;10.25;;;5.20;;
61308;SDS011;47188;55.644;37.772;2022-10-17T01:28:24;7.28;;;4.90;;
61308;SDS011;47188;55.644;37.772;2022-10-17T01:36:48;8.45;;;5.43;;
61308;SDS011;47188;55.644;37.772;2022-10-17T01:39:23;8.57;;;5.43;;
61308;SDS011;47188;55.644;37.772;2022-10-17T01:44:45;8.57;;;5.22;;
61308;SDS011;47188;55.644;37.772;2022-10-17T01:47:19;7.50;;;5.70;;
61308;SDS011;47188;55.644;37.772;2022-10-17T01:49:47;9.48;;;5.65;;
61308;SDS011;47188;55.644;37.772;2022-10-17T01:52:22;7.20;;;5.72;;
61308;SDS011;47188;55.644;37.772;2022-10-17T01:54:55;9.13;;;5.38;;
61308;SDS011;47188;55.644;37.772;2022-10-17T01:59:53;9.63;;;6.40;;
61308;SDS011;47188;55.644;37.772;2022-10-17T02:02:20;8.77;;;5.90;;
61308;SDS011;47188;55.644;37.772;2022-10-17T02:04:46;11.13;;;5.88;;
61308;SDS011;47188;55.644;37.772;2022-10-17T02:07:14;7.15;;;5.53;;
61308;SDS011;47188;55.644;37.772;2022-10-17T02:09:40;7.85;;;5.65;;
61308;SDS011;47188;55.644;37.772;2022-10-17T02:20:28;9.93;;;6.00;;
61308;SDS011;47188;55.644;37.772;2022-10-17T02:23:00;7.55;;;5.60;;
61308;SDS011;47188;55.644;37.772;2022-10-17T02:25:34;7.70;;;5.68;;
61308;SDS011;47188;55.644;37.772;2022-10-17T02:28:06;7.65;;;5.45;;
61308;SDS011;47188;55.644;37.772;2022-10-17T02:30:49;7.25;;;5.35;;
61308;SDS011;47188;55.644;37.772;2022-10-17T02:35:55;7.68;;;5.40;;
61308;SDS011;47188;55.644;37.772;2022-10-17T02:38:24;8.30;;;5.10;;
61308;SDS011;47188;55.644;37.772;2022-10-17T02:40:50;9.00;;;5.40;;
61308;SDS011;47188;55.644;37.772;2022-10-17T02:43:17;10.10;;;5.13;;
61308;SDS011;47188;55.644;37.772;2022-10-17T02:45:43;6.20;;;4.93;;
61308;SDS011;47188;55.644;37.772;2022-10-17T02:48:13;6.95;;;5.03;;
61308;SDS011;47188;55.644;37.772;2022-10-17T02:50:43;8.57;;;4.88;;
61308;SDS011;47188;55.644;37.772;2022-10-17T02:53:19;7.72;;;4.80;;
61308;SDS011;47188;55.644;37.772;2022-10-17T02:55:52;8.05;;;4.95;;
61308;SDS011;47188;55.644;37.772;2022-10-17T02:58:22;16.98;;;6.90;;
61308;SDS011;47188;55.644;37.772;2022-10-17T03:00:51;6.78;;;4.97;;
61308;SDS011;47188;55.644;37.772;2022-10-17T03:03:24;8.07;;;5.18;;
61308;SDS011;47188;55.644;37.772;2022-10-17T03:05:52;7.90;;;5.20;;
61308;SDS011;47188;55.644;37.772;2022-10-17T03:08:21;8.35;;;5.25;;
61308;SDS011;47188;55.644;37.772;2022-10-17T03:10:48;12.57;;;5.30;;
61308;SDS011;47188;55.644;37.772;2022-10-17T03:13:14;6.82;;;4.78;;
61308;SDS011;47188;55.644;37.772;2022-10-17T03:15:41;9.45;;;5.00;;
61308;SDS011;47188;55.644;37.772;2022-10-17T03:18:07;6.80;;;5.10;;
61308;SDS011;47188;55.644;37.772;2022-10-17T03:20:33;7.72;;;5.35;;
61308;SDS011;47188;55.644;37.772;2022-10-17T03:22:59;9.73;;;5.35;;
61308;SDS011;47188;55.644;37.772;2022-10-17T03:25:25;8.93;;;4.97;;
61308;SDS011;47188;55.644;37.772;2022-10-17T03:27:51;7.45;;;5.40;;
61308;SDS011;47188;55.644;37.772;2022-10-17T03:30:18;8.52;;;5.20;;
61308;SDS011;47188;55.644;37.772;2022-10-17T03:32:44;8.13;;;5.00;;
61308;SDS011;47188;55.644;37.772;2022-10-17T03:35:10;10.85;;;5.43;;
61308;SDS011;47188;55.644;37.772;2022-10-17T03:37:37;7.82;;;5.40;;
61308;SDS011;47188;55.644;37.772;2022-10-17T03:40:03;11.13;;;5.90;;
61308;SDS011;47188;55.644;37.772;2022-10-17T03:42:30;9.13;;;5.68;;
61308;SDS011;47188;55.644;37.772;2022-10-17T03:44:56;9.13;;;5.28;;
61308;SDS011;47188;55.644;37.772;2022-10-17T03:47:22;10.50;;;5.47;;
61308;SDS011;47188;55.644;37.772;2022-10-17T03:49:49;11.07;;;6.72;;
61308;SDS011;47188;55.644;37.772;2022-10-17T03:52:18;10.98;;;7.57;;
61308;SDS011;47188;55.644;37.772;2022-10-17T03:54:44;9.38;;;6.05;;
61308;SDS011;47188;55.644;37.772;2022-10-17T03:57:10;9.93;;;5.72;;
61308;SDS011;47188;55.644;37.772;2022-10-17T03:59:36;9.38;;;5.85;;
61308;SDS011;47188;55.644;37.772;2022-10-17T04:02:07;8.90;;;5.95;;
61308;SDS011;47188;55.644;37.772;2022-10-17T04:04:34;10.85;;;6.18;;
61308;SDS011;47188;55.644;37.772;2022-10-17T04:07:00;7.35;;;5.07;;
61308;SDS011;47188;55.644;37.772;2022-10-17T04:09:26;8.02;;;5.65;;
61308;SDS011;47188;55.644;37.772;2022-10-17T04:12:00;9.13;;;5.28;;
61308;SDS011;47188;55.644;37.772;2022-10-17T04:14:26;9.20;;;5.75;;
61308;SDS011;47188;55.644;37.772;2022-10-17T04:16:52;10.25;;;5.70;;
61308;SDS011;47188;55.644;37.772;2022-10-17T04:19:19;7.47;;;5.25;;
61308;SDS011;47188;55.644;37.772;2022-10-17T04:21:46;7.28;;;5.50;;
61308;SDS011;47188;55.644;37.772;2022-10-17T04:24:13;8.05;;;5.45;;
61308;SDS011;47188;55.644;37.772;2022-10-17T04:26:54;8.20;;;5.90;;
61308;SDS011;47188;55.644;37.772;2022-10-17T04:29:23;7.05;;;5.30;;
61308;SDS011;47188;55.644;37.772;2022-10-17T04:31:52;9.38;;;6.03;;
61308;SDS011;47188;55.644;37.772;2022-10-17T04:34:23;7.53;;;5.72;;
61308;SDS011;47188;55.644;37.772;2022-10-17T04:36:49;9.25;;;5.90;;
61308;SDS011;47188;55.644;37.772;2022-10-17T04:39:16;6.75;;;5.07;;
61308;SDS011;47188;55.644;37.772;2022-10-17T04:41:43;7.90;;;5.30;;
61308;SDS011;47188;55.644;37.772;2022-10-17T04:44:09;7.47;;;5.75;;
61308;SDS011;47188;55.644;37.772;2022-10-17T04:46:39;8.85;;;6.00;;
61308;SDS011;47188;55.644;37.772;2022-10-17T04:49:05;9.93;;;6.05;;
61308;SDS011;47188;55.644;37.772;2022-10-17T04:51:31;8.05;;;5.93;;
61308;SDS011;47188;55.644;37.772;2022-10-17T04:54:15;9.43;;;5.53;;
61308;SDS011;47188;55.644;37.772;2022-10-17T04:56:43;7.03;;;5.45;;
61308;SDS011;47188;55.644;37.772;2022-10-17T04:59:09;12.35;;;6.85;;
61308;SDS011;47188;55.644;37.772;2022-10-17T05:01:37;9.98;;;6.00;;
61308;SDS011;47188;55.644;37.772;2022-10-17T05:04:03;15.95;;;9.77;;
61308;SDS011;47188;55.644;37.772;2022-10-17T05:06:29;6.95;;;5.70;;
61308;SDS011;47188;55.644;37.772;2022-10-17T05:09:33;8.50;;;5.43;;
61308;SDS011;47188;55.644;37.772;2022-10-17T05:11:59;13.00;;;5.68;;
61308;SDS011;47188;55.644;37.772;2022-10-17T05:14:27;7.85;;;5.40;;
61308;SDS011;47188;55.644;37.772;2022-10-17T05:16:52;9.38;;;6.47;;
61308;SDS011;47188;55.644;37.772;2022-10-17T05:19:18;8.45;;;5.63;;
61308;SDS011;47188;55.644;37.772;2022-10-17T05:21:47;11.10;;;5.63;;
61308;SDS011;47188;55.644;37.772;2022-10-17T05:24:13;10.77;;;5.57;;
61308;SDS011;47188;55.644;37.772;2022-10-17T05:26:39;10.65;;;5.70;;
61308;SDS011;47188;55.644;37.772;2022-10-17T05:29:05;10.52;;;6.13;;
61308;SDS011;47188;55.644;37.772;2022-10-17T05:31:35;7.63;;;5.32;;
61308;SDS011;47188;55.644;37.772;2022-10-17T05:34:02;7.82;;;5.45;;
61308;SDS011;47188;55.644;37.772;2022-10-17T05:36:31;10.90;;;6.07;;
61308;SDS011;47188;55.644;37.772;2022-10-17T05:38:58;8.27;;;5.53;;
61308;SDS011;47188;55.644;37.772;2022-10-17T05:41:25;10.70;;;6.57;;
61308;SDS011;47188;55.644;37.772;2022-10-17T05:43:51;9.40;;;5.72;;
61308;SDS011;47188;55.644;37.772;2022-10-17T05:46:20;8.13;;;5.70;;
61308;SDS011;47188;55.644;37.772;2022-10-17T05:48:46;10.13;;;6.05;;
61308;SDS011;47188;55.644;37.772;2022-10-17T05:51:12;12.55;;;6.32;;
61308;SDS011;47188;55.644;37.772;2022-10-17T05:53:40;8.30;;;5.43;;
61308;SDS011;47188;55.644;37.772;2022-10-17T05:56:11;8.40;;;5.88;;
61308;SDS011;47188;55.644;37.772;2022-10-17T05:58:39;9.48;;;6.47;;
61308;SDS011;47188;55.644;37.772;2022-10-17T06:01:08;8.20;;;5.43;;
61308;SDS011;47188;55.644;37.772;2022-10-17T06:03:34;8.20;;;5.80;;
61308;SDS011;47188;55.644;37.772;2022-10-17T06:06:04;8.63;;;6.03;;
61308;SDS011;47188;55.644;37.772;2022-10-17T06:08:31;8.88;;;5.60;;
61308;SDS011;47188;55.644;37.772;2022-10-17T06:10:58;15.15;;;5.50;;
61308;SDS011;47188;55.644;37.772;2022-10-17T06:13:24;7.05;;;5.15;;
61308;SDS011;47188;55.644;37.772;2022-10-17T06:15:51;7.13;;;5.35;;
61308;SDS011;47188;55.644;37.772;2022-10-17T06:18:17;10.35;;;5.57;;
61308;SDS011;47188;55.644;37.772;2022-10-17T06:20:43;9.05;;;6.30;;
61308;SDS011;47188;55.644;37.772;2022-10-17T06:23:09;11.75;;;5.82;;
61308;SDS011;47188;55.644;37.772;2022-10-17T06:26:01;9.65;;;6.00;;
61308;SDS011;47188;55.644;37.772;2022-10-17T06:28:28;12.05;;;6.22;;
61308;SDS011;47188;55.644;37.772;2022-10-17T06:30:56;8.70;;;5.97;;
61308;SDS011;47188;55.644;37.772;2022-10-17T06:33:21;16.17;;;5.70;;
61308;SDS011;47188;55.644;37.772;2022-10-17T06:35:54;9.07;;;5.78;;
61308;SDS011;47188;55.644;37.772;2022-10-17T06:38:22;9.88;;;5.75;;
61308;SDS011;47188;55.644;37.772;2022-10-17T06:40:50;8.48;;;6.22;;
61308;SDS011;47188;55.644;37.772;2022-10-17T06:43:18;10.68;;;5.93;;
61308;SDS011;47188;55.644;37.772;2022-10-17T06:45:55;7.68;;;5.45;;
61308;SDS011;47188;55.644;37.772;2022-10-17T06:48:44;10.60;;;5.95;;
61308;SDS011;47188;55.644;37.772;2022-10-17T06:51:26;10.57;;;5.75;;
61308;SDS011;47188;55.644;37.772;2022-10-17T06:53:54;9.10;;;5.38;;
61308;SDS011;47188;55.644;37.772;2022-10-17T06:56:45;8.70;;;6.75;;
61308;SDS011;47188;55.644;37.772;2022-10-17T06:59:27;12.15;;;5.78;;
61308;SDS011;47188;55.644;37.772;2022-10-17T07:01:59;9.10;;;6.05;;
61308;SDS011;47188;55.644;37.772;2022-10-17T07:04:27;10.02;;;5.78;;
61308;SDS011;47188;55.644;37.772;2022-10-17T07:06:53;10.38;;;5.40;;
61308;SDS011;47188;55.644;37.772;2022-10-17T07:09:21;10.13;;;5.68;;
61308;SDS011;47188;55.644;37.772;2022-10-17T07:11:47;9.80;;;5.85;;
61308;SDS011;47188;55.644;37.772;2022-10-17T07:14:16;22.23;;;14.38;;
61308;SDS011;47188;55.644;37.772;2022-10-17T07:16:42;9.25;;;6.05;;
61308;SDS011;47188;55.644;37.772;2022-10-17T07:19:28;7.78;;;5.40;;
61308;SDS011;47188;55.644;37.772;2022-10-17T07:21:55;8.35;;;5.57;;
61308;SDS011;47188;55.644;37.772;2022-10-17T07:24:21;8.40;;;5.38;;
61308;SDS011;47188;55.644;37.772;2022-10-17T07:26:52;11.73;;;6.35;;
61308;SDS011;47188;55.644;37.772;2022-10-17T07:29:18;7.80;;;5.65;;
61308;SDS011;47188;55.644;37.772;2022-10-17T07:32:10;9.75;;;5.43;;
61308;SDS011;47188;55.644;37.772;2022-10-17T07:34:36;15.27;;;7.60;;
61308;SDS011;47188;55.644;37.772;2022-10-17T07:37:03;10.13;;;5.13;;
61308;SDS011;47188;55.644;37.772;2022-10-17T07:39:31;8.80;;;5.32;;
61308;SDS011;47188;55.644;37.772;2022-10-17T07:41:57;8.95;;;4.80;;
61308;SDS011;47188;55.644;37.772;2022-10-17T07:44:23;11.20;;;5.28;;
61308;SDS011;47188;55.644;37.772;2022-10-17T07:46:50;8.35;;;4.80;;
61308;SDS011;47188;55.644;37.772;2022-10-17T07:49:17;8.13;;;4.97;;
61308;SDS011;47188;55.644;37.772;2022-10-17T07:51:43;10.25;;;4.78;;
61308;SDS011;47188;55.644;37.772;2022-10-17T07:54:09;7.10;;;4.82;;
61308;SDS011;47188;55.644;37.772;2022-10-17T07:56:34;9.38;;;5.00;;
61308;SDS011;47188;55.644;37.772;2022-10-17T07:59:00;11.85;;;5.57;;
61308;SDS011;47188;55.644;37.772;2022-10-17T08:01:26;10.65;;;5.20;;
61308;SDS011;47188;55.644;37.772;2022-10-17T08:03:52;7.78;;;5.15;;
61308;SDS011;47188;55.644;37.772;2022-10-17T08:06:18;9.65;;;4.97;;
61308;SDS011;47188;55.644;37.772;2022-10-17T08:08:44;7.18;;;4.50;;
61308;SDS011;47188;55.644;37.772;2022-10-17T08:11:11;11.38;;;4.53;;
61308;SDS011;47188;55.644;37.772;2022-10-17T08:13:38;9.73;;;5.13;;
61308;SDS011;47188;55.644;37.772;2022-10-17T08:16:06;11.43;;;6.38;;
61308;SDS011;47188;55.644;37.772;2022-10-17T08:18:37;11.77;;;6.30;;
61308;SDS011;47188;55.644;37.772;2022-10-17T08:21:04;7.50;;;4.65;;
61308;SDS011;47188;55.644;37.772;2022-10-17T08:23:32;14.32;;;5.65;;
61308;SDS011;47188;55.644;37.772;2022-10-17T08:25:59;13.13;;;5.30;;
61308;SDS011;47188;55.644;37.772;2022-10-17T08:28:25;11.30;;;7.25;;
61308;SDS011;47188;55.644;37.772;2022-10-17T08:30:51;10.23;;;6.20;;
61308;SDS011;47188;55.644;37.772;2022-10-17T08:33:17;10.70;;;5.78;;
61308;SDS011;47188;55.644;37.772;2022-10-17T08:35:43;9.93;;;6.20;;
61308;SDS011;47188;55.644;37.772;2022-10-17T08:38:08;7.88;;;5.55;;
61308;SDS011;47188;55.644;37.772;2022-10-17T08:40:34;9.50;;;6.03;;
61308;SDS011;47188;55.644;37.772;2022-10-17T08:45:38;14.13;;;6.43;;
61308;SDS011;47188;55.644;37.772;2022-10-17T08:48:12;14.83;;;8.10;;
61308;SDS011;47188;55.644;37.772;2022-10-17T08:55:45;10.00;;;5.88;;
61308;SDS011;47188;55.644;37.772;2022-10-17T08:58:19;35.85;;;22.30;;
61308;SDS011;47188;55.644;37.772;2022-10-17T09:03:49;7.75;;;4.57;;
61308;SDS011;47188;55.644;37.772;2022-10-17T09:06:24;9.50;;;5.65;;
61308;SDS011;47188;55.644;37.772;2022-10-17T09:09:11;8.73;;;5.82;;
61308;SDS011;47188;55.644;37.772;2022-10-17T09:22:58;12.63;;;5.97;;
61308;SDS011;47188;55.644;37.772;2022-10-17T09:25:27;13.90;;;6.28;;
61308;SDS011;47188;55.644;37.772;2022-10-17T09:27:57;15.93;;;8.45;;
61308;SDS011;47188;55.644;37.772;2022-10-17T09:30:26;13.13;;;6.32;;
61308;SDS011;47188;55.644;37.772;2022-10-17T09:32:57;8.63;;;6.05;;
61308;SDS011;47188;55.644;37.772;2022-10-17T09:35:23;11.90;;;6.85;;
61308;SDS011;47188;55.644;37.772;2022-10-17T09:37:50;10.73;;;6.18;;
61308;SDS011;47188;55.644;37.772;2022-10-17T09:40:27;12.68;;;7.18;;
61308;SDS011;47188;55.644;37.772;2022-10-17T09:42:56;6.18;;;5.05;;
61308;SDS011;47188;55.644;37.772;2022-10-17T09:45:22;11.48;;;6.80;;
61308;SDS011;47188;55.644;37.772;2022-10-17T09:50:49;11.23;;;6.93;;
61308;SDS011;47188;55.644;37.772;2022-10-17T09:53:23;12.20;;;7.63;;
61308;SDS011;47188;55.644;37.772;2022-10-17T09:55:55;10.13;;;7.72;;
61308;SDS011;47188;55.644;37.772;2022-10-17T09:58:22;10.85;;;6.75;;
61308;SDS011;47188;55.644;37.772;2022-10-17T10:00:48;12.73;;;7.50;;
61308;SDS011;47188;55.644;37.772;2022-10-17T10:03:16;12.77;;;7.68;;
61308;SDS011;47188;55.644;37.772;2022-10-17T10:08:36;13.57;;;8.40;;
61308;SDS011;47188;55.644;37.772;2022-10-17T10:11:13;11.35;;;7.65;;
61308;SDS011;47188;55.644;37.772;2022-10-17T10:13:46;12.07;;;8.30;;
61308;SDS011;47188;55.644;37.772;2022-10-17T10:16:18;10.65;;;7.80;;
61308;SDS011;47188;55.644;37.772;2022-10-17T10:18:49;12.77;;;8.20;;
61308;SDS011;47188;55.644;37.772;2022-10-17T10:21:17;9.13;;;7.55;;
61308;SDS011;47188;55.644;37.772;2022-10-17T10:24:01;15.40;;;7.70;;
61308;SDS011;47188;55.644;37.772;2022-10-17T10:31:47;9.30;;;7.65;;
61308;SDS011;47188;55.644;37.772;2022-10-17T10:34:24;13.43;;;7.47;;
61308;SDS011;47188;55.644;37.772;2022-10-17T10:42:25;10.93;;;7.95;;
61308;SDS011;47188;55.644;37.772;2022-10-17T10:45:01;12.68;;;8.27;;
61308;SDS011;47188;55.644;37.772;2022-10-17T10:47:36;10.15;;;7.05;;
61308;SDS011;47188;55.644;37.772;2022-10-17T10:50:16;9.82;;;7.20;;
61308;SDS011;47188;55.644;37.772;2022-10-17T10:52:48;12.50;;;7.40;;
61308;SDS011;47188;55.644;37.772;2022-10-17T10:55:22;10.18;;;7.95;;
61308;SDS011;47188;55.644;37.772;2022-10-17T10:57:57;9.63;;;7.68;;
61308;SDS011;47188;55.644;37.772;2022-10-17T11:00:29;12.77;;;7.07;;
61308;SDS011;47188;55.644;37.772;2022-10-17T11:03:15;10.73;;;7.80;;
61308;SDS011;47188;55.644;37.772;2022-10-17T11:06:19;12.02;;;7.35;;
61308;SDS011;47188;55.644;37.772;2022-10-17T11:08:53;13.45;;;8.15;;
61308;SDS011;47188;55.644;37.772;2022-10-17T11:11:41;11.90;;;7.45;;
61308;SDS011;47188;55.644;37.772;2022-10-17T11:22:31;11.25;;;7.95;;
61308;SDS011;47188;55.644;37.772;2022-10-17T11:27:47;14.57;;;7.65;;
61308;SDS011;47188;55.644;37.772;2022-10-17T11:30:13;15.68;;;8.30;;
61308;SDS011;47188;55.644;37.772;2022-10-17T11:32:53;11.23;;;8.48;;
61308;SDS011;47188;55.644;37.772;2022-10-17T11:35:37;13.48;;;8.25;;
61308;SDS011;47188;55.644;37.772;2022-10-17T11:40:49;14.82;;;9.43;;
61308;SDS011;47188;55.644;37.772;2022-10-17T11:43:18;12.85;;;7.85;;
61308;SDS011;47188;55.644;37.772;2022-10-17T11:45:47;10.55;;;8.65;;
61308;SDS011;47188;55.644;37.772;2022-10-17T11:51:03;15.73;;;9.00;;
61308;SDS011;47188;55.644;37.772;2022-10-17T11:56:09;15.00;;;9.32;;
61308;SDS011;47188;55.644;37.772;2022-10-17T11:58:45;12.98;;;8.65;;
61308;SDS011;47188;55.644;37.772;2022-10-17T12:12:30;13.60;;;9.95;;
61308;SDS011;47188;55.644;37.772;2022-10-17T12:17:39;15.25;;;10.45;;
61308;SDS011;47188;55.644;37.772;2022-10-17T12:22:45;15.07;;;9.48;;
61308;SDS011;47188;55.644;37.772;2022-10-17T12:25:18;19.08;;;10.40;;
61308;SDS011;47188;55.644;37.772;2022-10-17T12:28:09;15.82;;;10.57;;
61308;SDS011;47188;55.644;37.772;2022-10-17T12:30:50;13.98;;;9.60;;
61308;SDS011;47188;55.644;37.772;2022-10-17T12:33:18;17.63;;;11.85;;
61308;SDS011;47188;55.644;37.772;2022-10-17T12:44:50;15.48;;;10.18;;
61308;SDS011;47188;55.644;37.772;2022-10-17T12:49:38;13.43;;;10.18;;
61308;SDS011;47188;55.644;37.772;2022-10-17T12:54:55;13.27;;;9.95;;
61308;SDS011;47188;55.644;37.772;2022-10-17T13:02:45;14.48;;;10.98;;
61308;SDS011;47188;55.644;37.772;2022-10-17T13:05:23;13.85;;;10.93;;
61308;SDS011;47188;55.644;37.772;2022-10-17T13:07:54;17.60;;;11.15;;
61308;SDS011;47188;55.644;37.772;2022-10-17T13:10:22;15.93;;;10.27;;
61308;SDS011;47188;55.644;37.772;2022-10-17T13:12:52;22.05;;;14.93;;
61308;SDS011;47188;55.644;37.772;2022-10-17T13:15:19;20.05;;;11.70;;
61308;SDS011;47188;55.644;37.772;2022-10-17T13:17:54;17.15;;;10.98;;
61308;SDS011;47188;55.644;37.772;2022-10-17T13:20:21;16.35;;;11.27;;
61308;SDS011;47188;55.644;37.772;2022-10-17T13:22:50;14.07;;;9.57;;
61308;SDS011;47188;55.644;37.772;2022-10-17T13:25:17;19.63;;;11.45;;
61308;SDS011;47188;55.644;37.772;2022-10-17T13:27:44;17.10;;;10.15;;
61308;SDS011;47188;55.644;37.772;2022-10-17T13:30:29;18.95;;;10.43;;
61308;SDS011;47188;55.644;37.772;2022-10-17T13:32:57;18.05;;;11.32;;
61308;SDS011;47188;55.644;37.772;2022-10-17T13:35:34;18.73;;;10.60;;
61308;SDS011;47188;55.644;37.772;2022-10-17T13:38:03;16.95;;;11.02;;
61308;SDS011;47188;55.644;37.772;2022-10-17T13:40:37;16.02;;;9.75;;
61308;SDS011;47188;55.644;37.772;2022-10-17T13:43:08;16.45;;;11.20;;
61308;SDS011;47188;55.644;37.772;2022-10-17T13:45:38;16.10;;;8.70;;
61308;SDS011;47188;55.644;37.772;2022-10-17T13:48:05;16.50;;;11.20;;
61308;SDS011;47188;55.644;37.772;2022-10-17T13:50:37;19.30;;;12.95;;
61308;SDS011;47188;55.644;37.772;2022-10-17T13:53:06;16.05;;;11.00;;
61308;SDS011;47188;55.644;37.772;2022-10-17T13:55:58;16.63;;;11.25;;
61308;SDS011;47188;55.644;37.772;2022-10-17T13:58:38;16.73;;;9.40;;
61308;SDS011;47188;55.644;37.772;2022-10-17T14:01:06;24.95;;;12.85;;
61308;SDS011;47188;55.644;37.772;2022-10-17T14:03:32;18.92;;;11.90;;
61308;SDS011;47188;55.644;37.772;2022-10-17T14:05:59;18.73;;;11.35;;
61308;SDS011;47188;55.644;37.772;2022-10-17T14:08:27;15.82;;;10.43;;
61308;SDS011;47188;55.644;37.772;2022-10-17T14:10:54;20.85;;;11.18;;
61308;SDS011;47188;55.644;37.772;2022-10-17T14:13:24;16.38;;;10.60;;
61308;SDS011;47188;55.644;37.772;2022-10-17T14:15:52;16.02;;;10.65;;
61308;SDS011;47188;55.644;37.772;2022-10-17T14:18:24;16.45;;;10.38;;
61308;SDS011;47188;55.644;37.772;2022-10-17T14:20:58;16.75;;;11.38;;
61308;SDS011;47188;55.644;37.772;2022-10-17T14:26:10;15.05;;;11.73;;
61308;SDS011;47188;55.644;37.772;2022-10-17T14:28:39;15.15;;;10.52;;
61308;SDS011;47188;55.644;37.772;2022-10-17T14:31:11;15.52;;;11.35;;
61308;SDS011;47188;55.644;37.772;2022-10-17T14:33:46;19.63;;;11.27;;
61308;SDS011;47188;55.644;37.772;2022-10-17T14:36:13;16.05;;;10.68;;
61308;SDS011;47188;55.644;37.772;2022-10-17T14:38:43;18.23;;;11.77;;
61308;SDS011;47188;55.644;37.772;2022-10-17T14:41:22;16.42;;;10.45;;
61308;SDS011;47188;55.644;37.772;2022-10-17T14:43:57;15.88;;;9.60;;
61308;SDS011;47188;55.644;37.772;2022-10-17T14:46:25;15.18;;;10.25;;
61308;SDS011;47188;55.644;37.772;2022-10-17T14:48:52;16.38;;;11.65;;
61308;SDS011;47188;55.644;37.772;2022-10-17T14:51:27;18.30;;;11.63;;
61308;SDS011;47188;55.644;37.772;2022-10-17T14:56:36;20.10;;;13.38;;
61308;SDS011;47188;55.644;37.772;2022-10-17T14:59:04;17.73;;;11.10;;
61308;SDS011;47188;55.644;37.772;2022-10-17T15:01:31;20.20;;;12.10;;
61308;SDS011;47188;55.644;37.772;2022-10-17T15:03:57;17.17;;;10.73;;
61308;SDS011;47188;55.644;37.772;2022-10-17T15:06:26;18.40;;;11.13;;
61308;SDS011;47188;55.644;37.772;2022-10-17T15:08:56;18.90;;;11.35;;
61308;SDS011;47188;55.644;37.772;2022-10-17T15:11:22;15.05;;;9.98;;
61308;SDS011;47188;55.644;37.772;2022-10-17T15:13:49;17.30;;;9.70;;
61308;SDS011;47188;55.644;37.772;2022-10-17T15:16:19;19.33;;;11.70;;
61308;SDS011;47188;55.644;37.772;2022-10-17T15:18:52;14.75;;;10.63;;
61308;SDS011;47188;55.644;37.772;2022-10-17T15:21:20;18.70;;;11.70;;
61308;SDS011;47188;55.644;37.772;2022-10-17T15:23:47;19.17;;;11.85;;
61308;SDS011;47188;55.644;37.772;2022-10-17T15:26:20;18.42;;;10.63;;
61308;SDS011;47188;55.644;37.772;2022-10-17T15:28:48;15.82;;;10.43;;
61308;SDS011;47188;55.644;37.772;2022-10-17T15:31:16;17.02;;;11.85;;
61308;SDS011;47188;55.644;37.772;2022-10-17T15:33:43;19.33;;;12.05;;
61308;SDS011;47188;55.644;37.772;2022-10-17T15:36:17;16.88;;;11.13;;
61308;SDS011;47188;55.644;37.772;2022-10-17T15:38:44;15.70;;;10.85;;
61308;SDS011;47188;55.644;37.772;2022-10-17T15:41:10;19.52;;;12.73;;
61308;SDS011;47188;55.644;37.772;2022-10-17T15:43:35;25.08;;;15.10;;
61308;SDS011;47188;55.644;37.772;2022-10-17T15:46:01;22.77;;;13.23;;
61308;SDS011;47188;55.644;37.772;2022-10-17T15:48:28;25.38;;;13.85;;
61308;SDS011;47188;55.644;37.772;2022-10-17T15:50:55;22.65;;;13.95;;
61308;SDS011;47188;55.644;37.772;2022-10-17T15:53:21;22.85;;;13.25;;
61308;SDS011;47188;55.644;37.772;2022-10-17T15:55:48;18.77;;;13.50;;
61308;SDS011;47188;55.644;37.772;2022-10-17T15:58:15;17.23;;;11.95;;
61308;SDS011;47188;55.644;37.772;2022-10-17T16:00:42;17.60;;;11.98;;
61308;SDS011;47188;55.644;37.772;2022-10-17T16:03:08;21.50;;;13.75;;
61308;SDS011;47188;55.644;37.772;2022-10-17T16:05:33;18.85;;;11.48;;
61308;SDS011;47188;55.644;37.772;2022-10-17T16:07:59;19.20;;;12.25;;
61308;SDS011;47188;55.644;37.772;2022-10-17T16:10:25;18.90;;;12.25;;
61308;SDS011;47188;55.644;37.772;2022-10-17T16:12:51;22.67;;;15.43;;
61308;SDS011;47188;55.644;37.772;2022-10-17T16:15:18;19.15;;;12.95;;
61308;SDS011;47188;55.644;37.772;2022-10-17T16:17:53;21.65;;;13.35;;
61308;SDS011;47188;55.644;37.772;2022-10-17T16:20:22;22.08;;;13.93;;
61308;SDS011;47188;55.644;37.772;2022-10-17T16:22:48;22.75;;;13.27;;
61308;SDS011;47188;55.644;37.772;2022-10-17T16:27:44;18.58;;;10.57;;
61308;SDS011;47188;55.644;37.772;2022-10-17T16:30:11;17.90;;;11.85;;
61308;SDS011;47188;55.644;37.772;2022-10-17T16:32:37;16.58;;;11.95;;
61308;SDS011;47188;55.644;37.772;2022-10-17T16:35:03;17.42;;;11.77;;
61308;SDS011;47188;55.644;37.772;2022-10-17T16:37:29;21.98;;;11.95;;
61308;SDS011;47188;55.644;37.772;2022-10-17T16:39:55;16.90;;;11.13;;
61308;SDS011;47188;55.644;37.772;2022-10-17T16:42:21;18.15;;;12.02;;
61308;SDS011;47188;55.644;37.772;2022-10-17T16:44:48;19.92;;;12.20;;
61308;SDS011;47188;55.644;37.772;2022-10-17T16:47:14;17.98;;;12.23;;
61308;SDS011;47188;55.644;37.772;2022-10-17T16:49:40;16.10;;;11.68;;